sensor_id;sensor_type;location;lat;lon;timestamp;temperature;humidity
20319;DHT22;10317;47.254;11.314;2023-02-10T00:01:40;-6.30;99.90
20319;DHT22;10317;47.254;11.314;2023-02-10T00:04:27;-6.20;99.90
20319;DHT22;10317;47.254;11.314;2023-02-10T00:07:13;-6.40;99.90
20319;DHT22;10317;47.254;11.314;2023-02-10T00:10:35;-6.40;99.90
20319;DHT22;10317;47.254;11.314;2023-02-10T00:16:05;-6.50;99.90
20319;DHT22;10317;47.254;11.314;2023-02-10T00:18:33;-6.50;99.90
20319;DHT22;10317;47.254;11.314;2023-02-10T00:21:15;-6.50;99.90
20319;DHT22;10317;47.254;11.314;2023-02-10T00:23:47;-6.50;99.90
20319;DHT22;10317;47.254;11.314;2023-02-10T00:26:16;-6.50;99.90
20319;DHT22;10317;47.254;11.314;2023-02-10T00:28:44;-6.50;99.90
20319;DHT22;10317;47.254;11.314;2023-02-10T00:31:20;-6.50;99.90
20319;DHT22;10317;47.254;11.314;2023-02-10T00:33:53;-6.60;99.90
20319;DHT22;10317;47.254;11.314;2023-02-10T00:36:28;-6.50;99.90
20319;DHT22;10317;47.254;11.314;2023-02-10T00:39:07;-6.50;99.90
20319;DHT22;10317;47.254;11.314;2023-02-10T00:41:52;-6.50;99.90
20319;DHT22;10317;47.254;11.314;2023-02-10T00:44:25;-6.50;99.90
20319;DHT22;10317;47.254;11.314;2023-02-10T00:46:59;-6.50;99.90
20319;DHT22;10317;47.254;11.314;2023-02-10T00:49:32;-6.60;99.90
20319;DHT22;10317;47.254;11.314;2023-02-10T00:52:01;-6.60;99.90
20319;DHT22;10317;47.254;11.314;2023-02-10T00:55:16;-6.60;99.90
20319;DHT22;10317;47.254;11.314;2023-02-10T00:57:54;-6.60;99.90
20319;DHT22;10317;47.254;11.314;2023-02-10T01:04:12;-6.70;99.90
20319;DHT22;10317;47.254;11.314;2023-02-10T01:06:42;-6.70;99.90
20319;DHT22;10317;47.254;11.314;2023-02-10T01:09:11;-6.70;99.90
20319;DHT22;10317;47.254;11.314;2023-02-10T01:11:37;-6.80;99.90
20319;DHT22;10317;47.254;11.314;2023-02-10T01:14:03;-6.80;99.90
20319;DHT22;10317;47.254;11.314;2023-02-10T01:16:28;-6.80;99.90
20319;DHT22;10317;47.254;11.314;2023-02-10T01:18:54;-6.80;99.90
20319;DHT22;10317;47.254;11.314;2023-02-10T01:21:20;-6.80;99.90
20319;DHT22;10317;47.254;11.314;2023-02-10T01:23:47;-6.80;99.90
20319;DHT22;10317;47.254;11.314;2023-02-10T01:26:13;-6.90;99.90
20319;DHT22;10317;47.254;11.314;2023-02-10T01:28:40;-6.90;99.90
20319;DHT22;10317;47.254;11.314;2023-02-10T01:31:17;-6.90;99.90
20319;DHT22;10317;47.254;11.314;2023-02-10T01:33:43;-6.90;99.90
20319;DHT22;10317;47.254;11.314;2023-02-10T01:36:12;-6.80;99.90
20319;DHT22;10317;47.254;11.314;2023-02-10T01:38:38;-6.80;99.90
20319;DHT22;10317;47.254;11.314;2023-02-10T01:41:05;-6.90;99.90
20319;DHT22;10317;47.254;11.314;2023-02-10T01:43:31;-6.90;99.90
20319;DHT22;10317;47.254;11.314;2023-02-10T01:45:57;-6.90;99.90
20319;DHT22;10317;47.254;11.314;2023-02-10T01:48:24;-6.90;99.90
20319;DHT22;10317;47.254;11.314;2023-02-10T01:50:55;-6.90;99.90
20319;DHT22;10317;47.254;11.314;2023-02-10T01:53:21;-7.00;99.90
20319;DHT22;10317;47.254;11.314;2023-02-10T01:55:50;-7.00;99.90
20319;DHT22;10317;47.254;11.314;2023-02-10T01:58:20;-7.00;99.90
20319;DHT22;10317;47.254;11.314;2023-02-10T02:00:46;-7.10;99.90
20319;DHT22;10317;47.254;11.314;2023-02-10T02:03:13;-7.10;99.90
20319;DHT22;10317;47.254;11.314;2023-02-10T02:05:40;-7.10;99.90
20319;DHT22;10317;47.254;11.314;2023-02-10T02:16:23;-7.10;99.90
20319;DHT22;10317;47.254;11.314;2023-02-10T02:19:15;-7.10;99.90
20319;DHT22;10317;47.254;11.314;2023-02-10T02:33:39;-7.10;99.90
20319;DHT22;10317;47.254;11.314;2023-02-10T02:36:20;-7.10;99.90
20319;DHT22;10317;47.254;11.314;2023-02-10T02:38:47;-7.10;99.90
20319;DHT22;10317;47.254;11.314;2023-02-10T02:41:12;-7.10;99.90
20319;DHT22;10317;47.254;11.314;2023-02-10T02:43:39;-7.20;99.90
20319;DHT22;10317;47.254;11.314;2023-02-10T02:46:20;-7.20;99.90
20319;DHT22;10317;47.254;11.314;2023-02-10T02:48:56;-7.20;99.90
20319;DHT22;10317;47.254;11.314;2023-02-10T02:59:51;-7.20;99.90
20319;DHT22;10317;47.254;11.314;2023-02-10T03:02:19;-7.20;99.90
20319;DHT22;10317;47.254;11.314;2023-02-10T03:04:46;-7.20;99.90
20319;DHT22;10317;47.254;11.314;2023-02-10T03:07:13;-7.20;99.90
20319;DHT22;10317;47.254;11.314;2023-02-10T03:09:40;-7.30;99.90
20319;DHT22;10317;47.254;11.314;2023-02-10T03:12:06;-7.30;99.90
20319;DHT22;10317;47.254;11.314;2023-02-10T03:14:32;-7.30;99.90
20319;DHT22;10317;47.254;11.314;2023-02-10T03:16:58;-7.30;99.90
20319;DHT22;10317;47.254;11.314;2023-02-10T03:19:23;-7.30;99.90
20319;DHT22;10317;47.254;11.314;2023-02-10T03:21:49;-7.30;99.90
20319;DHT22;10317;47.254;11.314;2023-02-10T03:24:15;-7.30;99.90
20319;DHT22;10317;47.254;11.314;2023-02-10T03:26:42;-7.30;99.90
20319;DHT22;10317;47.254;11.314;2023-02-10T03:29:10;-7.30;99.90
20319;DHT22;10317;47.254;11.314;2023-02-10T03:31:36;-7.30;99.90
20319;DHT22;10317;47.254;11.314;2023-02-10T03:34:02;-7.30;99.90
20319;DHT22;10317;47.254;11.314;2023-02-10T03:36:27;-7.30;99.90
20319;DHT22;10317;47.254;11.314;2023-02-10T03:38:53;-7.40;99.90
20319;DHT22;10317;47.254;11.314;2023-02-10T03:41:18;-7.40;99.90
20319;DHT22;10317;47.254;11.314;2023-02-10T03:43:44;-7.50;99.90
20319;DHT22;10317;47.254;11.314;2023-02-10T03:46:10;-7.40;99.90
20319;DHT22;10317;47.254;11.314;2023-02-10T03:48:36;-7.40;99.90
20319;DHT22;10317;47.254;11.314;2023-02-10T03:51:05;-7.40;99.90
20319;DHT22;10317;47.254;11.314;2023-02-10T03:53:31;-7.50;99.90
20319;DHT22;10317;47.254;11.314;2023-02-10T03:55:58;-7.50;99.90
20319;DHT22;10317;47.254;11.314;2023-02-10T03:58:24;-7.60;99.90
20319;DHT22;10317;47.254;11.314;2023-02-10T04:00:49;-7.60;99.90
20319;DHT22;10317;47.254;11.314;2023-02-10T04:03:15;-7.60;99.90
20319;DHT22;10317;47.254;11.314;2023-02-10T04:05:41;-7.60;99.90
20319;DHT22;10317;47.254;11.314;2023-02-10T04:08:07;-7.60;99.90
20319;DHT22;10317;47.254;11.314;2023-02-10T04:10:33;-7.60;99.90
20319;DHT22;10317;47.254;11.314;2023-02-10T04:12:59;-7.60;99.90
20319;DHT22;10317;47.254;11.314;2023-02-10T04:15:24;-7.60;99.90
20319;DHT22;10317;47.254;11.314;2023-02-10T04:17:50;-7.60;99.90
20319;DHT22;10317;47.254;11.314;2023-02-10T04:20:16;-7.60;99.90
20319;DHT22;10317;47.254;11.314;2023-02-10T04:22:42;-7.60;99.90
20319;DHT22;10317;47.254;11.314;2023-02-10T04:25:08;-7.60;99.90
20319;DHT22;10317;47.254;11.314;2023-02-10T04:27:33;-7.60;99.90
20319;DHT22;10317;47.254;11.314;2023-02-10T04:29:59;-7.60;99.90
20319;DHT22;10317;47.254;11.314;2023-02-10T04:32:25;-7.60;99.90
20319;DHT22;10317;47.254;11.314;2023-02-10T04:34:51;-7.60;99.90
20319;DHT22;10317;47.254;11.314;2023-02-10T04:37:17;-7.60;99.90
20319;DHT22;10317;47.254;11.314;2023-02-10T04:39:42;-7.70;99.90
20319;DHT22;10317;47.254;11.314;2023-02-10T04:42:08;-7.70;99.90
20319;DHT22;10317;47.254;11.314;2023-02-10T04:44:34;-7.70;99.90
20319;DHT22;10317;47.254;11.314;2023-02-10T04:47:00;-7.70;99.90
20319;DHT22;10317;47.254;11.314;2023-02-10T04:49:26;-7.70;99.90
20319;DHT22;10317;47.254;11.314;2023-02-10T04:51:52;-7.70;99.90
20319;DHT22;10317;47.254;11.314;2023-02-10T04:54:18;-7.70;99.90
20319;DHT22;10317;47.254;11.314;2023-02-10T04:56:44;-7.70;99.90
20319;DHT22;10317;47.254;11.314;2023-02-10T04:59:10;-7.70;99.90
20319;DHT22;10317;47.254;11.314;2023-02-10T05:01:36;-7.70;99.90
20319;DHT22;10317;47.254;11.314;2023-02-10T05:04:01;-7.80;99.90
20319;DHT22;10317;47.254;11.314;2023-02-10T05:06:27;-7.80;99.90
20319;DHT22;10317;47.254;11.314;2023-02-10T05:08:53;-7.80;99.90
20319;DHT22;10317;47.254;11.314;2023-02-10T05:11:18;-7.80;99.90
20319;DHT22;10317;47.254;11.314;2023-02-10T05:13:44;-7.80;99.90
20319;DHT22;10317;47.254;11.314;2023-02-10T05:16:12;-7.80;99.90
20319;DHT22;10317;47.254;11.314;2023-02-10T05:18:38;-7.90;99.90
20319;DHT22;10317;47.254;11.314;2023-02-10T05:21:05;-7.90;99.90
20319;DHT22;10317;47.254;11.314;2023-02-10T05:23:35;-7.90;99.90
20319;DHT22;10317;47.254;11.314;2023-02-10T05:26:01;-8.00;99.90
20319;DHT22;10317;47.254;11.314;2023-02-10T05:28:26;-8.10;99.90
20319;DHT22;10317;47.254;11.314;2023-02-10T05:30:53;-8.10;99.90
20319;DHT22;10317;47.254;11.314;2023-02-10T05:33:19;-8.10;99.90
20319;DHT22;10317;47.254;11.314;2023-02-10T05:35:45;-8.00;99.90
20319;DHT22;10317;47.254;11.314;2023-02-10T05:38:11;-8.00;99.90
20319;DHT22;10317;47.254;11.314;2023-02-10T05:40:37;-8.00;99.90
20319;DHT22;10317;47.254;11.314;2023-02-10T05:43:03;-8.00;99.90
20319;DHT22;10317;47.254;11.314;2023-02-10T05:45:29;-8.00;99.90
20319;DHT22;10317;47.254;11.314;2023-02-10T05:47:54;-8.00;99.90
20319;DHT22;10317;47.254;11.314;2023-02-10T05:50:20;-8.00;99.90
20319;DHT22;10317;47.254;11.314;2023-02-10T05:52:46;-8.00;99.90
20319;DHT22;10317;47.254;11.314;2023-02-10T05:55:12;-8.00;99.90
20319;DHT22;10317;47.254;11.314;2023-02-10T05:57:38;-8.00;99.90
20319;DHT22;10317;47.254;11.314;2023-02-10T06:00:05;-8.00;99.90
20319;DHT22;10317;47.254;11.314;2023-02-10T06:02:31;-7.90;99.90
20319;DHT22;10317;47.254;11.314;2023-02-10T06:04:57;-7.90;99.90
20319;DHT22;10317;47.254;11.314;2023-02-10T06:07:22;-7.90;99.90
20319;DHT22;10317;47.254;11.314;2023-02-10T06:09:48;-8.00;99.90
20319;DHT22;10317;47.254;11.314;2023-02-10T06:12:14;-7.90;99.90
20319;DHT22;10317;47.254;11.314;2023-02-10T06:14:40;-7.90;99.90
20319;DHT22;10317;47.254;11.314;2023-02-10T06:17:06;-7.90;99.90
20319;DHT22;10317;47.254;11.314;2023-02-10T06:19:38;-8.00;99.90
20319;DHT22;10317;47.254;11.314;2023-02-10T06:22:06;-7.90;99.90
20319;DHT22;10317;47.254;11.314;2023-02-10T06:24:32;-8.00;99.90
20319;DHT22;10317;47.254;11.314;2023-02-10T06:26:57;-7.90;99.90
20319;DHT22;10317;47.254;11.314;2023-02-10T06:29:24;-8.00;99.90
20319;DHT22;10317;47.254;11.314;2023-02-10T06:31:49;-8.00;99.90
20319;DHT22;10317;47.254;11.314;2023-02-10T06:34:15;-8.00;99.90
20319;DHT22;10317;47.254;11.314;2023-02-10T06:36:41;-8.00;99.90
20319;DHT22;10317;47.254;11.314;2023-02-10T06:39:07;-8.00;99.90
20319;DHT22;10317;47.254;11.314;2023-02-10T06:41:34;-7.90;99.90
20319;DHT22;10317;47.254;11.314;2023-02-10T06:44:00;-7.90;99.90
20319;DHT22;10317;47.254;11.314;2023-02-10T06:46:26;-7.90;99.90
20319;DHT22;10317;47.254;11.314;2023-02-10T06:48:52;-7.90;99.90
20319;DHT22;10317;47.254;11.314;2023-02-10T06:51:18;-7.80;99.90
20319;DHT22;10317;47.254;11.314;2023-02-10T06:53:44;-7.80;99.90
20319;DHT22;10317;47.254;11.314;2023-02-10T06:56:11;-7.80;99.90
20319;DHT22;10317;47.254;11.314;2023-02-10T06:58:37;-7.80;99.90
20319;DHT22;10317;47.254;11.314;2023-02-10T07:01:10;-7.80;99.90
20319;DHT22;10317;47.254;11.314;2023-02-10T07:03:36;-7.80;99.90
20319;DHT22;10317;47.254;11.314;2023-02-10T07:06:02;-7.80;99.90
20319;DHT22;10317;47.254;11.314;2023-02-10T07:08:28;-7.70;99.90
20319;DHT22;10317;47.254;11.314;2023-02-10T07:10:57;-7.70;99.90
20319;DHT22;10317;47.254;11.314;2023-02-10T07:13:22;-7.70;99.90
20319;DHT22;10317;47.254;11.314;2023-02-10T07:15:48;-7.70;99.90
20319;DHT22;10317;47.254;11.314;2023-02-10T07:18:14;-7.70;99.90
20319;DHT22;10317;47.254;11.314;2023-02-10T07:20:40;-7.60;99.90
20319;DHT22;10317;47.254;11.314;2023-02-10T07:23:05;-7.60;99.90
20319;DHT22;10317;47.254;11.314;2023-02-10T07:25:31;-7.60;99.90
20319;DHT22;10317;47.254;11.314;2023-02-10T07:27:57;-7.50;99.90
20319;DHT22;10317;47.254;11.314;2023-02-10T07:30:22;-7.50;99.90
20319;DHT22;10317;47.254;11.314;2023-02-10T07:32:48;-7.50;99.90
20319;DHT22;10317;47.254;11.314;2023-02-10T07:35:14;-7.40;99.90
20319;DHT22;10317;47.254;11.314;2023-02-10T07:37:40;-7.40;99.90
20319;DHT22;10317;47.254;11.314;2023-02-10T07:40:06;-7.40;99.90
20319;DHT22;10317;47.254;11.314;2023-02-10T07:42:32;-7.40;99.90
20319;DHT22;10317;47.254;11.314;2023-02-10T07:44:59;-7.30;99.90
20319;DHT22;10317;47.254;11.314;2023-02-10T07:47:25;-7.30;99.90
20319;DHT22;10317;47.254;11.314;2023-02-10T07:49:51;-7.20;99.90
20319;DHT22;10317;47.254;11.314;2023-02-10T08:42:12;-6.70;99.90
20319;DHT22;10317;47.254;11.314;2023-02-10T08:44:37;-6.70;99.90
20319;DHT22;10317;47.254;11.314;2023-02-10T08:47:03;-6.60;99.90
20319;DHT22;10317;47.254;11.314;2023-02-10T08:49:29;-6.60;99.90
20319;DHT22;10317;47.254;11.314;2023-02-10T08:51:56;-6.60;99.90
20319;DHT22;10317;47.254;11.314;2023-02-10T08:54:22;-6.50;99.90
20319;DHT22;10317;47.254;11.314;2023-02-10T08:56:48;-6.40;99.90
20319;DHT22;10317;47.254;11.314;2023-02-10T08:59:14;-6.30;99.90
20319;DHT22;10317;47.254;11.314;2023-02-10T09:01:40;-6.20;99.90
20319;DHT22;10317;47.254;11.314;2023-02-10T09:04:09;-6.10;99.90
20319;DHT22;10317;47.254;11.314;2023-02-10T09:06:37;-6.00;99.90
20319;DHT22;10317;47.254;11.314;2023-02-10T09:09:08;-5.80;99.90
20319;DHT22;10317;47.254;11.314;2023-02-10T09:11:37;-5.60;99.90
20319;DHT22;10317;47.254;11.314;2023-02-10T09:14:03;-5.50;99.90
20319;DHT22;10317;47.254;11.314;2023-02-10T09:16:29;-5.20;99.90
20319;DHT22;10317;47.254;11.314;2023-02-10T09:18:55;-4.80;99.90
20319;DHT22;10317;47.254;11.314;2023-02-10T09:21:20;-3.80;99.90
20319;DHT22;10317;47.254;11.314;2023-02-10T09:23:46;-2.70;99.90
20319;DHT22;10317;47.254;11.314;2023-02-10T09:26:12;-1.70;99.90
20319;DHT22;10317;47.254;11.314;2023-02-10T09:28:38;-0.70;99.90
20319;DHT22;10317;47.254;11.314;2023-02-10T09:31:08;-0.30;99.90
20319;DHT22;10317;47.254;11.314;2023-02-10T09:33:34;-0.20;99.80
20319;DHT22;10317;47.254;11.314;2023-02-10T09:36:03;0.00;98.70
20319;DHT22;10317;47.254;11.314;2023-02-10T09:38:28;-0.10;97.70
20319;DHT22;10317;47.254;11.314;2023-02-10T09:46:36;0.40;95.60
20319;DHT22;10317;47.254;11.314;2023-02-10T09:49:26;0.70;94.60
20319;DHT22;10317;47.254;11.314;2023-02-10T09:54:39;0.90;94.00
20319;DHT22;10317;47.254;11.314;2023-02-10T09:57:14;1.40;94.20
20319;DHT22;10317;47.254;11.314;2023-02-10T09:59:41;1.70;92.70
20319;DHT22;10317;47.254;11.314;2023-02-10T10:04:53;2.20;89.20
20319;DHT22;10317;47.254;11.314;2023-02-10T10:07:26;2.30;86.50
20319;DHT22;10317;47.254;11.314;2023-02-10T10:10:20;2.30;85.70
20319;DHT22;10317;47.254;11.314;2023-02-10T10:12:47;2.10;83.40
20319;DHT22;10317;47.254;11.314;2023-02-10T10:15:17;1.90;83.00
20319;DHT22;10317;47.254;11.314;2023-02-10T10:17:46;1.80;81.10
20319;DHT22;10317;47.254;11.314;2023-02-10T10:23:33;2.00;80.40
20319;DHT22;10317;47.254;11.314;2023-02-10T10:31:48;1.90;79.50
20319;DHT22;10317;47.254;11.314;2023-02-10T10:34:18;1.90;79.80
20319;DHT22;10317;47.254;11.314;2023-02-10T10:36:50;1.90;80.20
20319;DHT22;10317;47.254;11.314;2023-02-10T10:39:38;1.90;81.60
20319;DHT22;10317;47.254;11.314;2023-02-10T10:42:35;1.70;80.20
20319;DHT22;10317;47.254;11.314;2023-02-10T10:45:10;1.60;80.20
20319;DHT22;10317;47.254;11.314;2023-02-10T10:47:46;1.50;78.90
20319;DHT22;10317;47.254;11.314;2023-02-10T10:50:23;1.40;78.80
20319;DHT22;10317;47.254;11.314;2023-02-10T10:52:51;1.40;79.70
20319;DHT22;10317;47.254;11.314;2023-02-10T10:55:40;1.30;80.50
20319;DHT22;10317;47.254;11.314;2023-02-10T11:00:52;1.30;80.30
20319;DHT22;10317;47.254;11.314;2023-02-10T11:03:18;1.30;82.00
20319;DHT22;10317;47.254;11.314;2023-02-10T11:05:57;1.30;83.00
20319;DHT22;10317;47.254;11.314;2023-02-10T11:08:27;1.30;80.70
20319;DHT22;10317;47.254;11.314;2023-02-10T11:10:55;1.40;81.30
20319;DHT22;10317;47.254;11.314;2023-02-10T11:13:26;1.40;81.90
20319;DHT22;10317;47.254;11.314;2023-02-10T11:16:05;1.60;79.90
20319;DHT22;10317;47.254;11.314;2023-02-10T11:18:31;1.60;82.80
20319;DHT22;10317;47.254;11.314;2023-02-10T11:21:01;1.60;84.70
20319;DHT22;10317;47.254;11.314;2023-02-10T11:23:27;1.50;80.80
20319;DHT22;10317;47.254;11.314;2023-02-10T11:25:57;1.60;81.50
20319;DHT22;10317;47.254;11.314;2023-02-10T11:28:26;1.60;82.50
20319;DHT22;10317;47.254;11.314;2023-02-10T11:31:01;1.70;81.40
20319;DHT22;10317;47.254;11.314;2023-02-10T11:33:30;1.70;82.60
20319;DHT22;10317;47.254;11.314;2023-02-10T11:36:01;1.90;78.20
20319;DHT22;10317;47.254;11.314;2023-02-10T11:38:28;2.10;80.00
20319;DHT22;10317;47.254;11.314;2023-02-10T11:40:57;2.30;79.60
20319;DHT22;10317;47.254;11.314;2023-02-10T11:43:31;2.50;78.90
20319;DHT22;10317;47.254;11.314;2023-02-10T11:46:00;2.70;77.10
20319;DHT22;10317;47.254;11.314;2023-02-10T11:48:27;2.80;76.40
20319;DHT22;10317;47.254;11.314;2023-02-10T11:53:33;3.00;74.00
20319;DHT22;10317;47.254;11.314;2023-02-10T11:58:59;3.20;73.20
20319;DHT22;10317;47.254;11.314;2023-02-10T12:01:48;3.20;74.50
20319;DHT22;10317;47.254;11.314;2023-02-10T12:07:12;3.40;72.70
20319;DHT22;10317;47.254;11.314;2023-02-10T12:12:52;3.50;72.40
20319;DHT22;10317;47.254;11.314;2023-02-10T12:15:38;3.70;73.70
20319;DHT22;10317;47.254;11.314;2023-02-10T12:26:27;3.90;73.90
20319;DHT22;10317;47.254;11.314;2023-02-10T12:29:21;3.90;73.10
20319;DHT22;10317;47.254;11.314;2023-02-10T12:34:43;4.10;71.00
20319;DHT22;10317;47.254;11.314;2023-02-10T12:45:19;4.20;72.40
20319;DHT22;10317;47.254;11.314;2023-02-10T12:58:32;4.50;67.70
20319;DHT22;10317;47.254;11.314;2023-02-10T13:03:39;4.60;69.60
20319;DHT22;10317;47.254;11.314;2023-02-10T13:06:39;4.70;69.40
20319;DHT22;10317;47.254;11.314;2023-02-10T13:09:20;4.80;67.10
20319;DHT22;10317;47.254;11.314;2023-02-10T13:12:22;4.70;64.50
20319;DHT22;10317;47.254;11.314;2023-02-10T13:14:53;4.70;63.50
20319;DHT22;10317;47.254;11.314;2023-02-10T13:17:20;4.70;63.30
20319;DHT22;10317;47.254;11.314;2023-02-10T13:19:57;4.60;63.10
20319;DHT22;10317;47.254;11.314;2023-02-10T13:22:48;4.60;64.80
20319;DHT22;10317;47.254;11.314;2023-02-10T13:25:24;4.70;63.60
20319;DHT22;10317;47.254;11.314;2023-02-10T13:36:38;4.60;63.00
20319;DHT22;10317;47.254;11.314;2023-02-10T13:39:17;4.60;62.90
20319;DHT22;10317;47.254;11.314;2023-02-10T13:41:46;4.70;64.40
20319;DHT22;10317;47.254;11.314;2023-02-10T13:44:32;4.90;64.60
20319;DHT22;10317;47.254;11.314;2023-02-10T13:49:53;5.10;64.90
20319;DHT22;10317;47.254;11.314;2023-02-10T13:52:25;5.10;64.50
20319;DHT22;10317;47.254;11.314;2023-02-10T13:57:32;5.20;62.90
20319;DHT22;10317;47.254;11.314;2023-02-10T14:00:25;5.10;62.50
20319;DHT22;10317;47.254;11.314;2023-02-10T14:05:58;5.20;62.30
20319;DHT22;10317;47.254;11.314;2023-02-10T14:08:43;5.30;62.00
20319;DHT22;10317;47.254;11.314;2023-02-10T14:13:58;5.20;63.50
20319;DHT22;10317;47.254;11.314;2023-02-10T14:16:31;5.20;63.50
20319;DHT22;10317;47.254;11.314;2023-02-10T14:21:46;5.10;63.60
20319;DHT22;10317;47.254;11.314;2023-02-10T14:24:16;5.10;64.30
20319;DHT22;10317;47.254;11.314;2023-02-10T14:26:44;5.00;63.70
20319;DHT22;10317;47.254;11.314;2023-02-10T14:29:15;4.90;64.60
20319;DHT22;10317;47.254;11.314;2023-02-10T14:31:42;4.90;65.40
20319;DHT22;10317;47.254;11.314;2023-02-10T14:34:21;4.70;64.40
20319;DHT22;10317;47.254;11.314;2023-02-10T14:37:01;4.80;64.90
20319;DHT22;10317;47.254;11.314;2023-02-10T14:39:30;4.70;64.80
20319;DHT22;10317;47.254;11.314;2023-02-10T14:42:00;4.60;64.50
20319;DHT22;10317;47.254;11.314;2023-02-10T14:44:40;4.40;65.30
20319;DHT22;10317;47.254;11.314;2023-02-10T14:47:19;4.30;65.10
20319;DHT22;10317;47.254;11.314;2023-02-10T14:49:54;4.20;65.60
20319;DHT22;10317;47.254;11.314;2023-02-10T14:52:34;4.10;66.00
20319;DHT22;10317;47.254;11.314;2023-02-10T14:55:00;4.00;66.20
20319;DHT22;10317;47.254;11.314;2023-02-10T14:57:27;3.90;66.50
20319;DHT22;10317;47.254;11.314;2023-02-10T14:59:58;3.80;67.20
20319;DHT22;10317;47.254;11.314;2023-02-10T15:02:26;3.70;68.00
20319;DHT22;10317;47.254;11.314;2023-02-10T15:04:58;3.70;68.00
20319;DHT22;10317;47.254;11.314;2023-02-10T15:07:34;3.60;68.70
20319;DHT22;10317;47.254;11.314;2023-02-10T15:12:38;3.40;70.30
20319;DHT22;10317;47.254;11.314;2023-02-10T15:15:29;3.30;69.90
20319;DHT22;10317;47.254;11.314;2023-02-10T15:18:04;3.10;69.80
20319;DHT22;10317;47.254;11.314;2023-02-10T15:20:32;2.90;70.20
20319;DHT22;10317;47.254;11.314;2023-02-10T15:28:20;2.40;70.60
20319;DHT22;10317;47.254;11.314;2023-02-10T15:31:05;2.30;71.10
20319;DHT22;10317;47.254;11.314;2023-02-10T15:36:34;1.90;71.70
20319;DHT22;10317;47.254;11.314;2023-02-10T15:39:03;1.70;72.50
20319;DHT22;10317;47.254;11.314;2023-02-10T15:41:57;1.60;72.40
20319;DHT22;10317;47.254;11.314;2023-02-10T16:25:28;0.00;79.30
20319;DHT22;10317;47.254;11.314;2023-02-10T16:55:29;-1.00;84.90
20319;DHT22;10317;47.254;11.314;2023-02-10T17:06:58;-1.30;86.60
20319;DHT22;10317;47.254;11.314;2023-02-10T17:10:02;-1.30;89.30
20319;DHT22;10317;47.254;11.314;2023-02-10T17:12:35;-1.30;90.20
20319;DHT22;10317;47.254;11.314;2023-02-10T17:18:24;-1.40;90.20
20319;DHT22;10317;47.254;11.314;2023-02-10T17:24:03;-1.50;90.30
20319;DHT22;10317;47.254;11.314;2023-02-10T17:40:14;-1.80;92.40
20319;DHT22;10317;47.254;11.314;2023-02-10T17:42:56;-1.80;92.30
20319;DHT22;10317;47.254;11.314;2023-02-10T17:45:21;-1.90;92.10
20319;DHT22;10317;47.254;11.314;2023-02-10T17:47:52;-1.90;93.00
20319;DHT22;10317;47.254;11.314;2023-02-10T17:50:22;-1.90;92.70
20319;DHT22;10317;47.254;11.314;2023-02-10T17:52:49;-2.00;92.90
20319;DHT22;10317;47.254;11.314;2023-02-10T17:55:15;-2.00;93.20
20319;DHT22;10317;47.254;11.314;2023-02-10T17:57:40;-2.10;93.30
20319;DHT22;10317;47.254;11.314;2023-02-10T18:00:10;-2.20;93.30
20319;DHT22;10317;47.254;11.314;2023-02-10T18:02:35;-2.10;93.60
20319;DHT22;10317;47.254;11.314;2023-02-10T18:05:01;-2.20;93.60
20319;DHT22;10317;47.254;11.314;2023-02-10T18:07:27;-2.20;93.50
20319;DHT22;10317;47.254;11.314;2023-02-10T18:09:52;-2.30;93.60
20319;DHT22;10317;47.254;11.314;2023-02-10T18:12:18;-2.30;94.10
20319;DHT22;10317;47.254;11.314;2023-02-10T18:14:47;-2.30;94.30
20319;DHT22;10317;47.254;11.314;2023-02-10T18:17:14;-2.40;94.20
20319;DHT22;10317;47.254;11.314;2023-02-10T18:19:40;-2.40;94.10
20319;DHT22;10317;47.254;11.314;2023-02-10T18:22:07;-2.50;94.10
20319;DHT22;10317;47.254;11.314;2023-02-10T18:24:33;-2.60;94.40
20319;DHT22;10317;47.254;11.314;2023-02-10T18:26:59;-2.50;95.20
20319;DHT22;10317;47.254;11.314;2023-02-10T18:29:26;-2.60;95.60
20319;DHT22;10317;47.254;11.314;2023-02-10T18:31:52;-2.60;95.70
20319;DHT22;10317;47.254;11.314;2023-02-10T18:34:18;-2.60;95.60
20319;DHT22;10317;47.254;11.314;2023-02-10T18:36:43;-2.70;95.50
20319;DHT22;10317;47.254;11.314;2023-02-10T18:39:09;-2.80;95.70
20319;DHT22;10317;47.254;11.314;2023-02-10T18:41:36;-2.80;95.50
20319;DHT22;10317;47.254;11.314;2023-02-10T18:44:01;-2.80;95.30
20319;DHT22;10317;47.254;11.314;2023-02-10T18:46:27;-2.90;95.70
20319;DHT22;10317;47.254;11.314;2023-02-10T18:48:53;-2.90;96.10
20319;DHT22;10317;47.254;11.314;2023-02-10T18:51:20;-3.00;96.60
20319;DHT22;10317;47.254;11.314;2023-02-10T18:53:47;-2.90;96.80
20319;DHT22;10317;47.254;11.314;2023-02-10T18:56:15;-3.00;96.80
20319;DHT22;10317;47.254;11.314;2023-02-10T18:58:42;-3.20;96.30
20319;DHT22;10317;47.254;11.314;2023-02-10T19:01:19;-3.10;96.40
20319;DHT22;10317;47.254;11.314;2023-02-10T19:03:45;-3.20;97.00
20319;DHT22;10317;47.254;11.314;2023-02-10T19:06:11;-3.20;97.20
20319;DHT22;10317;47.254;11.314;2023-02-10T19:08:37;-3.20;97.00
20319;DHT22;10317;47.254;11.314;2023-02-10T19:11:06;-3.30;97.10
20319;DHT22;10317;47.254;11.314;2023-02-10T19:13:32;-3.40;97.10
20319;DHT22;10317;47.254;11.314;2023-02-10T19:15:59;-3.40;97.20
20319;DHT22;10317;47.254;11.314;2023-02-10T19:19:02;-3.40;97.60
20319;DHT22;10317;47.254;11.314;2023-02-10T19:21:28;-3.40;97.90
20319;DHT22;10317;47.254;11.314;2023-02-10T19:23:53;-3.40;98.20
20319;DHT22;10317;47.254;11.314;2023-02-10T19:26:22;-3.40;97.90
20319;DHT22;10317;47.254;11.314;2023-02-10T19:28:48;-3.50;97.70
20319;DHT22;10317;47.254;11.314;2023-02-10T19:31:14;-3.50;97.60
20319;DHT22;10317;47.254;11.314;2023-02-10T19:33:49;-3.50;98.00
20319;DHT22;10317;47.254;11.314;2023-02-10T19:36:17;-3.50;97.80
20319;DHT22;10317;47.254;11.314;2023-02-10T19:38:43;-3.50;97.90
20319;DHT22;10317;47.254;11.314;2023-02-10T19:43:36;-3.60;98.50
20319;DHT22;10317;47.254;11.314;2023-02-10T19:46:03;-3.60;98.50
20319;DHT22;10317;47.254;11.314;2023-02-10T19:48:35;-3.60;98.40
20319;DHT22;10317;47.254;11.314;2023-02-10T19:51:10;-3.60;98.50
20319;DHT22;10317;47.254;11.314;2023-02-10T19:53:37;-3.70;98.40
20319;DHT22;10317;47.254;11.314;2023-02-10T19:56:05;-3.70;98.70
20319;DHT22;10317;47.254;11.314;2023-02-10T19:58:31;-3.70;98.80
20319;DHT22;10317;47.254;11.314;2023-02-10T20:01:03;-3.70;99.20
20319;DHT22;10317;47.254;11.314;2023-02-10T20:03:29;-3.70;99.70
20319;DHT22;10317;47.254;11.314;2023-02-10T20:06:04;-3.80;99.70
20319;DHT22;10317;47.254;11.314;2023-02-10T20:08:31;-3.80;99.40
20319;DHT22;10317;47.254;11.314;2023-02-10T20:10:57;-3.80;99.40
20319;DHT22;10317;47.254;11.314;2023-02-10T20:13:23;-3.80;99.50
20319;DHT22;10317;47.254;11.314;2023-02-10T20:16:16;-3.80;99.90
20319;DHT22;10317;47.254;11.314;2023-02-10T20:18:42;-3.80;99.90
20319;DHT22;10317;47.254;11.314;2023-02-10T20:21:08;-3.90;99.90
20319;DHT22;10317;47.254;11.314;2023-02-10T20:23:36;-4.00;99.90